createdAt,value
2018-05-26T10:25:56.165Z,25.90
2018-05-26T10:28:24.593Z,26.10
2018-05-26T10:30:52.584Z,26.10
2018-05-26T10:33:20.504Z,26.20
2018-05-26T10:35:48.413Z,26.30
2018-05-26T10:38:16.394Z,26.40
2018-05-26T10:40:44.308Z,26.50
2018-05-26T10:43:12.387Z,26.60
2018-05-26T10:45:40.294Z,26.80
2018-05-26T10:48:08.230Z,26.90
2018-05-26T10:50:36.242Z,27.20
2018-05-26T10:53:04.450Z,27.40
2018-05-26T10:55:32.475Z,27.70
2018-05-26T10:58:00.390Z,27.40
2018-05-26T11:00:28.357Z,27.90
2018-05-26T11:05:25.882Z,28.00
2018-05-26T11:07:54.354Z,28.50
2018-05-26T11:10:22.400Z,28.40
2018-05-26T11:12:50.492Z,28.70
2018-05-26T11:15:19.049Z,28.90
2018-05-26T11:17:47.181Z,29.20
2018-05-26T11:20:15.189Z,29.70
2018-05-26T11:22:44.029Z,30.40
2018-05-26T11:25:12.086Z,31.10
2018-05-26T11:27:40.319Z,32.10
2018-05-26T11:30:08.467Z,32.80
2018-05-26T11:32:36.470Z,33.40
2018-05-26T11:35:04.502Z,33.70
2018-05-26T11:37:32.469Z,33.50
2018-05-26T11:40:01.374Z,34.50
2018-05-26T11:42:29.418Z,35.00
2018-05-26T11:44:57.333Z,35.40
2018-05-26T11:47:25.290Z,35.70
2018-05-26T11:49:53.716Z,36.70
2018-05-26T11:52:22.154Z,37.20
2018-05-26T11:54:51.210Z,37.80
2018-05-26T11:57:19.685Z,38.60
2018-05-26T11:59:47.652Z,38.60
2018-05-26T12:02:15.615Z,38.20
2018-05-26T12:04:43.544Z,38.50
2018-05-26T12:07:11.474Z,39.90
2018-05-26T12:09:39.410Z,40.50
2018-05-26T12:12:07.317Z,39.90
2018-05-26T12:14:35.902Z,39.80
2018-05-26T12:17:04.951Z,40.10
2018-05-26T12:19:33.035Z,40.50
2018-05-26T12:22:01.214Z,41.00
2018-05-26T12:24:29.270Z,40.80
2018-05-26T12:26:57.592Z,40.90
2018-05-26T12:29:25.549Z,41.70
2018-05-26T12:31:53.517Z,41.80
2018-05-26T12:34:21.738Z,39.90
2018-05-26T12:36:50.109Z,39.20
2018-05-26T12:39:18.155Z,39.70
2018-05-26T12:41:46.245Z,40.40
2018-05-26T12:44:14.313Z,41.30
2018-05-26T12:46:42.450Z,41.10
2018-05-26T12:49:10.941Z,40.90
2018-05-26T12:51:39.045Z,40.10
2018-05-26T12:54:07.847Z,40.20
2018-05-26T12:56:51.962Z,40.40
2018-05-26T12:59:20.145Z,40.20
2018-05-26T13:01:48.300Z,40.00
2018-05-26T13:04:17.063Z,39.40
2018-05-26T13:06:45.228Z,39.00
2018-05-26T13:09:13.281Z,38.20
2018-05-26T13:11:41.414Z,37.70
2018-05-26T13:14:09.874Z,38.10
2018-05-26T13:16:37.825Z,38.00
2018-05-26T13:19:06.113Z,38.10
2018-05-26T13:21:34.451Z,38.10
2018-05-26T13:24:03.065Z,38.10
2018-05-26T13:26:31.226Z,37.90
2018-05-26T13:31:28.091Z,38.00
2018-05-26T13:33:56.245Z,38.10
2018-05-26T13:36:24.962Z,38.30
2018-05-26T13:38:52.901Z,38.50
2018-05-26T13:41:21.664Z,38.60
2018-05-26T13:43:49.741Z,38.60
2018-05-26T13:46:17.848Z,39.00
2018-05-26T13:48:45.759Z,39.70
2018-05-26T13:51:23.776Z,40.20
2018-05-26T13:53:52.504Z,40.10
2018-05-26T13:56:20.959Z,41.00
2018-05-26T13:58:48.885Z,42.00
2018-05-26T14:01:17.010Z,42.70
2018-05-26T14:03:45.552Z,41.70
2018-05-26T14:06:14.926Z,39.10
2018-05-26T14:08:43.507Z,37.20
2018-05-26T14:11:11.564Z,38.10
2018-05-26T14:13:40.551Z,40.10
2018-05-26T14:16:08.912Z,40.70
2018-05-26T14:18:36.910Z,40.70
2018-05-26T14:21:04.975Z,41.00
2018-05-26T14:23:32.978Z,39.60
2018-05-26T14:26:01.055Z,37.80
2018-05-26T14:28:29.276Z,36.20
2018-05-26T14:30:57.685Z,34.90
2018-05-26T14:33:25.753Z,34.10
2018-05-26T14:35:53.854Z,34.40
2018-05-26T14:38:23.288Z,34.00
2018-05-26T14:40:51.299Z,33.00
2018-05-26T14:43:19.229Z,32.30
2018-05-26T14:45:47.174Z,31.60
2018-05-26T14:48:15.296Z,31.20
2018-05-26T14:50:43.209Z,30.90
2018-05-26T14:53:11.537Z,32.20
2018-05-26T14:55:39.510Z,34.10
2018-05-26T15:00:36.368Z,36.00
2018-05-26T15:03:04.460Z,36.60
2018-05-26T15:05:33.075Z,37.30
2018-05-26T15:08:01.706Z,37.30
2018-05-26T15:10:29.684Z,37.70
2018-05-26T15:12:57.960Z,37.80
2018-05-26T15:17:54.826Z,36.40
2018-05-26T15:20:22.742Z,34.70
2018-05-26T15:22:50.666Z,33.90
2018-05-26T15:27:47.658Z,35.20
2018-05-26T15:30:15.576Z,36.10
2018-05-26T15:32:44.275Z,35.90
2018-05-26T15:35:12.366Z,35.40
2018-05-26T15:37:40.518Z,34.90
2018-05-26T15:42:38.193Z,35.30
2018-05-26T15:45:06.977Z,35.80
2018-05-26T15:47:34.913Z,36.20
2018-05-26T15:50:03.713Z,36.10
2018-05-26T15:52:31.627Z,35.80
2018-05-26T15:55:01.111Z,35.60
2018-05-26T15:57:29.190Z,35.30
2018-05-26T15:59:57.595Z,35.00
2018-05-26T16:02:25.621Z,34.90
2018-05-26T16:04:54.103Z,34.90
2018-05-26T16:07:22.024Z,34.30
2018-05-26T16:09:50.038Z,33.90
2018-05-26T16:14:47.146Z,33.80
2018-05-26T16:17:16.517Z,33.50
2018-05-26T16:19:44.464Z,33.20
2018-05-26T16:22:13.386Z,32.80
2018-05-26T16:32:55.572Z,32.80
2018-05-26T16:35:24.330Z,32.80
2018-05-26T16:37:52.778Z,32.70
2018-05-26T16:40:20.785Z,32.70
2018-05-26T16:42:49.644Z,32.50
2018-05-26T16:45:17.701Z,32.40
2018-05-26T16:47:46.240Z,32.40
2018-05-26T16:50:14.298Z,32.10
2018-05-26T16:52:42.350Z,32.00
2018-05-26T16:55:10.539Z,31.90
2018-05-26T17:00:07.614Z,31.80
2018-05-26T17:02:35.531Z,31.50
2018-05-26T17:05:03.537Z,31.00
2018-05-26T17:07:31.497Z,30.70
2018-05-26T17:09:59.672Z,30.40
2018-05-26T17:12:27.618Z,30.30
2018-05-26T17:14:56.448Z,30.10
2018-05-26T17:17:24.778Z,29.90
2018-05-26T17:19:52.841Z,29.80
2018-05-26T17:22:21.310Z,29.60
2018-05-26T17:24:49.234Z,29.50
2018-05-26T17:27:17.807Z,29.30
2018-05-26T17:29:45.878Z,29.20
2018-05-26T17:32:13.846Z,29.10
2018-05-26T17:34:41.792Z,29.00
2018-05-26T17:37:10.012Z,28.90
2018-05-26T17:39:37.934Z,28.80
2018-05-26T17:42:05.921Z,28.70
2018-05-26T17:44:33.910Z,28.60
2018-05-26T17:47:02.418Z,28.50
2018-05-26T17:49:30.338Z,28.40
2018-05-26T17:51:58.394Z,28.40
2018-05-26T17:54:26.302Z,28.40
2018-05-26T17:56:54.370Z,28.30
2018-05-26T17:59:22.521Z,28.20
2018-05-26T18:01:50.619Z,28.10
2018-05-26T18:04:19.374Z,28.00
2018-05-26T18:06:47.821Z,28.00
2018-05-26T18:09:16.260Z,28.00
2018-05-26T18:11:44.201Z,27.90
2018-05-26T18:14:12.605Z,27.90
2018-05-26T18:16:40.724Z,27.80
2018-05-26T18:19:08.691Z,27.80
2018-05-26T18:21:36.608Z,27.80
2018-05-26T18:24:04.528Z,27.70
2018-05-26T18:26:32.564Z,27.70
2018-05-26T18:29:00.466Z,27.60
2018-05-26T18:31:28.424Z,27.60
2018-05-26T18:36:25.341Z,27.40
2018-05-26T18:38:53.519Z,27.40
2018-05-26T18:43:50.702Z,27.20
2018-05-26T18:46:19.173Z,27.20
2018-05-26T18:48:47.186Z,27.10
2018-05-26T18:51:15.092Z,27.00
2018-05-26T18:53:43.171Z,27.00
2018-05-26T18:56:11.360Z,27.00
2018-05-26T18:58:39.282Z,27.00
2018-05-26T19:01:08.386Z,26.90
2018-05-26T19:03:36.340Z,26.90
2018-05-26T19:06:05.264Z,26.80
2018-05-26T19:08:33.477Z,26.70
2018-05-26T19:11:01.701Z,26.70
2018-05-26T19:13:29.718Z,26.50
2018-05-26T19:15:57.820Z,26.40
2018-05-26T19:18:27.302Z,26.40
2018-05-26T19:20:55.213Z,26.30
2018-05-26T19:23:23.192Z,26.30
2018-05-26T19:25:51.121Z,26.20
2018-05-26T19:28:19.074Z,26.20
2018-05-26T19:30:47.733Z,26.10
2018-05-26T19:33:16.261Z,26.00
2018-05-26T19:35:44.398Z,25.90
2018-05-26T19:38:12.969Z,25.90
2018-05-26T19:40:40.917Z,25.80
2018-05-26T19:43:08.833Z,25.80
2018-05-26T19:45:36.770Z,25.70
2018-05-26T19:48:04.705Z,25.70
2018-05-26T19:50:33.184Z,25.60
2018-05-26T19:53:01.097Z,26.10
2018-05-26T19:55:29.053Z,25.60
2018-05-26T20:00:25.831Z,25.60
2018-05-26T20:02:53.796Z,25.50
2018-05-26T20:05:21.923Z,25.90
2018-05-26T20:07:50.631Z,25.50
2018-05-26T20:10:18.578Z,25.70
2018-05-26T20:12:47.179Z,25.30
2018-05-26T20:15:15.198Z,25.70
2018-05-26T20:17:43.163Z,25.20
2018-05-26T20:20:11.193Z,25.60
2018-05-26T20:22:39.623Z,25.20
2018-05-26T20:25:07.547Z,25.50
2018-05-26T20:27:35.499Z,25.10
2018-05-26T20:30:03.897Z,25.50
2018-05-26T20:32:31.832Z,25.00
2018-05-26T20:34:59.744Z,25.40
2018-05-26T20:37:27.645Z,25.00
2018-05-26T20:39:56.037Z,25.30
2018-05-26T20:42:24.143Z,25.40
2018-05-26T20:44:52.054Z,24.90
2018-05-26T20:47:20.020Z,25.20
2018-05-26T20:49:47.961Z,24.80
2018-05-26T20:52:16.132Z,25.20
2018-05-26T20:54:44.137Z,25.30
2018-05-26T20:57:12.053Z,24.90
2018-05-26T21:02:09.443Z,25.20
2018-05-26T21:04:38.012Z,24.80
2018-05-26T21:07:06.096Z,25.00
2018-05-26T21:09:37.269Z,25.10
2018-05-26T21:12:05.195Z,25.10
2018-05-26T21:14:33.121Z,25.10
2018-05-26T21:17:01.078Z,25.00
2018-05-26T21:19:29.054Z,25.00
2018-05-26T21:21:56.965Z,25.00
2018-05-26T21:24:25.974Z,25.00
2018-05-26T21:26:53.874Z,24.90
2018-05-26T21:29:21.783Z,24.80
2018-05-26T21:31:49.726Z,24.80
2018-05-26T21:34:17.648Z,24.70
2018-05-26T21:36:45.626Z,24.70
2018-05-26T21:39:13.590Z,24.60
2018-05-26T21:41:41.890Z,24.50
2018-05-26T21:44:09.921Z,24.40
2018-05-26T21:46:37.898Z,24.40
2018-05-26T21:49:06.161Z,24.30
2018-05-26T21:51:34.074Z,24.30
2018-05-26T21:54:02.050Z,24.30
2018-05-26T21:56:30.115Z,24.30
2018-05-26T21:58:58.161Z,24.20
2018-05-26T22:01:26.106Z,24.20
2018-05-26T22:03:54.032Z,24.20
2018-05-26T22:06:21.959Z,24.20
2018-05-26T22:08:59.923Z,24.20
2018-05-26T22:11:39.183Z,24.20
2018-05-26T22:14:07.393Z,24.10
2018-05-26T22:16:35.302Z,24.00
2018-05-26T22:19:03.974Z,24.00
2018-05-26T22:21:31.953Z,24.00
2018-05-26T22:24:01.528Z,23.90
2018-05-26T22:26:29.501Z,23.90
2018-05-26T22:28:58.097Z,23.90
2018-05-26T22:31:26.026Z,23.90
2018-05-26T22:33:53.942Z,23.90
2018-05-26T22:36:21.949Z,23.80
2018-05-26T22:38:49.909Z,23.70
2018-05-26T22:41:17.875Z,23.50
2018-05-26T22:43:46.455Z,23.50
2018-05-26T22:46:14.596Z,23.50
2018-05-26T22:48:43.153Z,23.50
